CheckWX is a tool to help pilots better visualize weather data.  It is not intended as a substitute for an official pre-flight weather briefing.

22:56:12 UTC

EGOP METAR
Pembrey Sands Airport
Pembrey Sands, United Kingdom
Current

1 hour ago

EGOP 222150Z AUTO 33006KT 9999 // NCD 10/05 Q1018
Observed
May-22 @ 21:50 UTC
Wind
  • 330° at 6 KTS
Visibility
10,000+ meters
Flight Rules
VFR
Cloud Levels
  • Clear skies
Temperature
10°C / 50°F
Dewpoint
C / 41°F
Humidity
71%
Altimeter
30.06" Hg
Pressure
1017.92 hPa
Previous

2 hours ago

EGOP 222050Z AUTO 31007KT 9999 // NCD 13/06 Q1018
Observed
May-22 @ 20:50 UTC
Wind
  • 310° at 7 KTS
Visibility
10,000+ meters
Flight Rules
VFR
Cloud Levels
  • Clear skies
Temperature
13°C / 55°F
Dewpoint
C / 43°F
Humidity
63%
Altimeter
30.06" Hg
Pressure
1017.92 hPa
Previous

3 hours ago

EGOP 221950Z AUTO 29007KT 9999 // NCD 15/07 Q1018
Observed
May-22 @ 19:50 UTC
Wind
  • 290° at 7 KTS
Visibility
10,000+ meters
Flight Rules
VFR
Cloud Levels
  • Clear skies
Temperature
15°C / 59°F
Dewpoint
C / 45°F
Humidity
59%
Altimeter
30.06" Hg
Pressure
1017.92 hPa